createdAt,value
2022-08-17T00:04:49.969Z,22.7
2022-08-17T00:10:06.016Z,22.4
2022-08-17T00:15:53.781Z,22.5
2022-08-17T00:21:25.849Z,22.5
2022-08-17T00:26:57.726Z,22.4
2022-08-17T00:33:10.428Z,22.3
2022-08-17T00:37:58.667Z,22.1
2022-08-17T00:43:57.836Z,21.8
2022-08-17T00:49:17.536Z,21.8
2022-08-17T00:54:51.366Z,21.9
2022-08-17T01:00:47.473Z,22.1
2022-08-17T01:05:59.000Z,22
2022-08-17T01:11:37.638Z,21.9
2022-08-17T01:17:13.561Z,21.8
2022-08-17T01:23:09.892Z,21.5
2022-08-17T01:28:53.603Z,21.4
2022-08-17T01:34:14.291Z,21.2
2022-08-17T01:39:57.050Z,21.3
2022-08-17T01:45:10.176Z,21
2022-08-17T01:50:52.141Z,20.8
2022-08-17T01:56:47.134Z,20.7
2022-08-17T02:02:00.241Z,20.6
2022-08-17T02:07:56.000Z,20.3
2022-08-17T02:13:27.832Z,20.1
2022-08-17T02:19:06.936Z,19.8
2022-08-17T02:24:59.259Z,19.9
2022-08-17T02:29:57.141Z,19.9
2022-08-17T02:35:45.780Z,20
2022-08-17T02:41:26.820Z,20
2022-08-17T02:46:51.389Z,19.9
2022-08-17T02:52:43.571Z,19.7
2022-08-17T02:57:52.971Z,19.6
2022-08-17T03:03:28.481Z,19.6
2022-08-17T03:09:13.876Z,19.6
2022-08-17T03:20:34.987Z,19.4
2022-08-17T03:25:52.893Z,19.2
2022-08-17T03:31:37.335Z,19
2022-08-17T03:37:01.041Z,19.1
2022-08-17T03:42:36.691Z,18.7
2022-08-17T03:48:11.130Z,18.9
2022-08-17T03:53:53.731Z,19.4
2022-08-17T03:59:30.842Z,19.2
2022-08-17T04:04:53.910Z,19.3
2022-08-17T04:10:57.050Z,18.8
2022-08-17T04:16:08.301Z,18.5
2022-08-17T04:22:01.730Z,18.7
2022-08-17T04:27:17.605Z,18.6
2022-08-17T04:33:22.032Z,18.5
2022-08-17T04:38:38.188Z,18.6
2022-08-17T04:44:27.139Z,18.6
2022-08-17T04:49:55.790Z,18.6
2022-08-17T04:55:37.159Z,18.5
2022-08-17T05:00:53.575Z,18.5
2022-08-17T05:06:42.659Z,18.9
2022-08-17T05:12:20.891Z,19.1
2022-08-17T05:17:45.736Z,19
2022-08-17T05:23:20.192Z,19.1
2022-08-17T05:28:58.577Z,19.2
2022-08-17T05:34:46.284Z,19.2
2022-08-17T05:40:21.004Z,19.3
2022-08-17T05:45:54.970Z,19.2
2022-08-17T05:51:19.635Z,19.2
2022-08-17T05:57:04.005Z,19.4
2022-08-17T06:02:35.062Z,19.5
2022-08-17T06:08:18.574Z,19.7
2022-08-17T06:13:52.491Z,20
2022-08-17T06:19:19.537Z,20.4
2022-08-17T06:25:00.943Z,20.4
2022-08-17T06:30:58.367Z,20.1
2022-08-17T06:36:02.248Z,20.2
2022-08-17T06:41:31.809Z,20.5
2022-08-17T06:47:28.215Z,20.7
2022-08-17T06:53:02.767Z,20.5
2022-08-17T06:58:28.901Z,20.7
2022-08-17T07:04:11.712Z,21
2022-08-17T07:09:54.859Z,21.6
2022-08-17T07:15:23.434Z,21.4
2022-08-17T07:21:14.213Z,21.8
2022-08-17T07:26:25.168Z,22
2022-08-17T07:32:28.637Z,22
2022-08-17T07:37:43.865Z,22.7
2022-08-17T07:43:15.661Z,22.6
2022-08-17T07:48:56.957Z,23.4
2022-08-17T07:54:31.977Z,23.7
2022-08-17T08:00:24.383Z,23.2
2022-08-17T08:06:08.727Z,23
2022-08-17T08:11:45.740Z,23.9
2022-08-17T08:17:17.853Z,23.6
2022-08-17T08:22:49.689Z,24.4
2022-08-17T08:28:23.025Z,24.6
2022-08-17T08:33:56.313Z,25.8
2022-08-17T08:39:36.529Z,24.8
2022-08-17T08:45:29.384Z,25.2
2022-08-17T08:51:10.720Z,25.2
2022-08-17T08:56:31.468Z,25
2022-08-17T09:02:19.923Z,25.1
2022-08-17T09:07:48.096Z,25.3
2022-08-17T09:13:40.009Z,25.7
2022-08-17T09:18:59.509Z,25
2022-08-17T09:24:40.792Z,25.1
2022-08-17T09:30:38.339Z,25.7
2022-08-17T09:36:04.617Z,25.9
2022-08-17T09:41:51.528Z,25.3
2022-08-17T09:47:10.318Z,26.2
2022-08-17T09:53:01.415Z,25.5
2022-08-17T09:58:29.194Z,26.2
2022-08-17T10:04:24.867Z,26.3
2022-08-17T10:09:52.642Z,26.8
2022-08-17T10:15:15.651Z,26.9
2022-08-17T10:21:05.409Z,26.7
2022-08-17T10:26:56.259Z,27.2
2022-08-17T10:32:10.312Z,26.8
2022-08-17T10:38:04.615Z,26.4
2022-08-17T10:43:35.831Z,27.2
2022-08-17T10:49:33.293Z,27.2
2022-08-17T10:54:59.474Z,27
2022-08-17T11:00:34.690Z,26.7
2022-08-17T11:06:23.333Z,27.4
2022-08-17T11:11:43.699Z,28.3
2022-08-17T11:17:40.923Z,27.4
2022-08-17T11:23:01.932Z,27.3
2022-08-17T11:28:44.256Z,27
2022-08-17T11:34:40.935Z,27.4
2022-08-17T11:40:18.830Z,27.7
2022-08-17T11:46:00.254Z,27.8
2022-08-17T11:51:18.581Z,27.6
2022-08-17T11:57:22.292Z,28
2022-08-17T12:02:48.917Z,28.4
2022-08-17T12:08:27.194Z,28.6
2022-08-17T12:14:20.206Z,28.3
2022-08-17T12:20:00.343Z,27.8
2022-08-17T12:25:35.547Z,28.9
2022-08-17T12:31:09.497Z,28.2
2022-08-17T12:36:56.956Z,28.6
2022-08-17T12:42:39.190Z,28.4
2022-08-17T12:48:10.472Z,28.7
2022-08-17T12:53:59.695Z,28.7
2022-08-17T12:59:30.051Z,28
2022-08-17T13:05:10.795Z,28.6
2022-08-17T13:10:51.350Z,28.3
2022-08-17T13:16:33.469Z,28
2022-08-17T13:22:16.391Z,28.3
2022-08-17T13:27:42.627Z,28.3
2022-08-17T13:33:28.644Z,28.6
2022-08-17T13:39:11.791Z,28.6
2022-08-17T13:44:27.841Z,29.4
2022-08-17T13:50:06.680Z,28.9
2022-08-17T13:55:43.997Z,28.5
2022-08-17T14:01:28.040Z,28.7
2022-08-17T14:07:22.244Z,28.4
2022-08-17T14:12:45.269Z,28.4
2022-08-17T14:18:34.253Z,26.5
2022-08-17T14:24:19.845Z,25.9
2022-08-17T14:30:01.995Z,25.7
2022-08-17T14:35:22.014Z,25.7
2022-08-17T14:40:58.479Z,25.8
2022-08-17T14:46:41.264Z,26
2022-08-17T14:52:12.691Z,25.8
2022-08-17T14:57:48.333Z,25.6
2022-08-17T15:03:37.244Z,25.8
2022-08-17T15:09:07.381Z,25.6
2022-08-17T15:14:40.952Z,25.4
2022-08-17T15:20:33.254Z,25.5
2022-08-17T15:25:59.299Z,25.5
2022-08-17T15:31:44.607Z,25.3
2022-08-17T15:37:09.109Z,25.2
2022-08-17T15:42:57.537Z,25.1
2022-08-17T15:48:30.410Z,25.1
2022-08-17T15:54:18.579Z,24.7
2022-08-17T15:59:36.824Z,24.4
2022-08-17T16:05:22.311Z,24
2022-08-17T16:11:05.574Z,23.7
2022-08-17T16:16:42.189Z,23.4
2022-08-17T16:22:21.632Z,22.8
2022-08-17T16:28:03.193Z,20.7
2022-08-17T16:33:34.963Z,16.8
2022-08-17T16:38:54.731Z,17.3
2022-08-17T16:44:35.365Z,18.6
2022-08-17T16:50:27.891Z,19.1
2022-08-17T16:55:45.680Z,19.3
2022-08-17T17:01:26.528Z,19.3
2022-08-17T17:07:11.149Z,19.1
2022-08-17T17:12:32.278Z,20.5
2022-08-17T17:18:10.249Z,19.9
2022-08-17T17:23:56.522Z,19.6
2022-08-17T17:29:48.434Z,19.2
2022-08-17T17:35:08.968Z,19.9
2022-08-17T17:40:55.139Z,19
2022-08-17T17:46:31.114Z,19
2022-08-17T17:51:55.116Z,19.5
2022-08-17T17:57:41.247Z,18.8
2022-08-17T18:03:09.685Z,18.3
2022-08-17T18:08:57.253Z,18.3
2022-08-17T18:14:20.006Z,17.9
2022-08-17T18:25:34.546Z,18.1
2022-08-17T18:30:59.930Z,17.6
2022-08-17T18:36:43.032Z,17.4
2022-08-17T18:42:30.350Z,17.4
2022-08-17T18:47:46.460Z,17.1
2022-08-17T18:53:42.689Z,17
2022-08-17T18:58:56.540Z,16.7
2022-08-17T19:04:49.108Z,16.6
2022-08-17T19:10:28.636Z,16.6
2022-08-17T19:16:10.140Z,16.7
2022-08-17T19:21:43.205Z,16.6
2022-08-17T19:26:57.980Z,16.6
2022-08-17T19:32:48.626Z,16.7
2022-08-17T19:38:22.153Z,16.4
2022-08-17T19:44:01.720Z,16.4
2022-08-17T19:49:40.343Z,16.4
2022-08-17T19:54:52.288Z,16.3
2022-08-17T20:00:29.979Z,16.4
2022-08-17T20:06:13.337Z,16.4
2022-08-17T20:11:58.976Z,16.4
2022-08-17T20:17:18.237Z,16.5
2022-08-17T20:23:08.676Z,16.4
2022-08-17T20:28:29.135Z,16.4
2022-08-17T20:33:55.096Z,16.3
2022-08-17T20:39:46.972Z,16.3
2022-08-17T20:45:05.104Z,16.5
2022-08-17T20:51:04.048Z,16.5
2022-08-17T20:56:17.518Z,16.6
2022-08-17T21:02:02.844Z,16.6
2022-08-17T21:07:49.097Z,16.5
2022-08-17T21:13:23.150Z,16.5
2022-08-17T21:19:01.093Z,16.5
2022-08-17T21:24:11.745Z,16.6
2022-08-17T21:30:04.002Z,16.5
2022-08-17T21:35:41.756Z,16.4
2022-08-17T21:41:05.203Z,16.3
2022-08-17T21:46:45.863Z,16.5
2022-08-17T21:52:07.440Z,16.4
2022-08-17T21:57:52.873Z,16.6
2022-08-17T22:03:25.726Z,16.5
2022-08-17T22:09:11.955Z,16.5
2022-08-17T22:14:51.408Z,16.7
2022-08-17T22:20:09.870Z,16.3
2022-08-17T22:25:52.827Z,16.4
2022-08-17T22:31:18.766Z,16.4
2022-08-17T22:36:57.496Z,16.3
2022-08-17T22:42:24.115Z,16.3
2022-08-17T22:48:01.687Z,16.4
2022-08-17T22:53:53.728Z,16.4
2022-08-17T22:59:29.305Z,16.4
2022-08-17T23:05:00.104Z,16.3
2022-08-17T23:10:31.480Z,16.6
2022-08-17T23:16:01.388Z,16.4
2022-08-17T23:21:27.540Z,16.6
2022-08-17T23:26:57.992Z,16.5
2022-08-17T23:32:36.764Z,16.5
2022-08-17T23:38:14.315Z,16.6
2022-08-17T23:43:42.919Z,16.6
2022-08-17T23:49:28.610Z,16.5
